createdAt,value
2023-01-22T00:01:22.318Z,99.79
2023-01-22T01:32:56.354Z,100.00
2023-01-22T01:35:24.359Z,100.00
2023-01-22T01:37:52.221Z,100.00
2023-01-22T01:40:19.143Z,100.00
2023-01-22T01:47:56.448Z,100.00
2023-01-22T01:50:23.467Z,100.00
2023-01-22T01:58:33.934Z,100.00
2023-01-22T02:01:04.638Z,100.00
2023-01-22T02:23:22.395Z,98.55
2023-01-22T02:25:49.134Z,97.93
2023-01-22T02:28:15.874Z,94.02
2023-01-22T02:30:42.882Z,96.80
2023-01-22T02:53:27.344Z,94.98
2023-01-22T02:55:54.205Z,99.04
2023-01-22T02:58:20.926Z,100.00
2023-01-22T03:00:47.720Z,99.46
2023-01-22T03:03:17.011Z,95.17
2023-01-22T03:05:45.929Z,95.00
2023-01-22T03:08:12.603Z,92.18
2023-01-22T03:10:39.286Z,94.86
2023-01-22T03:13:24.609Z,95.01
2023-01-22T03:16:09.890Z,95.53
2023-01-22T03:18:54.959Z,96.30
2023-01-22T03:21:22.585Z,92.79
2023-01-22T03:23:50.264Z,94.79
2023-01-22T03:26:17.115Z,92.52
2023-01-22T03:28:43.803Z,89.17
2023-01-22T03:31:10.522Z,92.24
2023-01-22T03:33:37.254Z,93.52
2023-01-22T03:36:04.975Z,89.92
2023-01-22T03:38:31.770Z,92.01
2023-01-22T03:41:08.560Z,89.49
2023-01-22T03:43:35.514Z,87.23
2023-01-22T03:46:06.978Z,86.57
2023-01-22T03:48:34.038Z,87.48
2023-01-22T03:51:04.582Z,89.09
2023-01-22T03:53:31.328Z,88.98
2023-01-22T03:56:01.352Z,88.00
2023-01-22T03:58:29.178Z,90.95
2023-01-22T04:00:57.953Z,94.51
2023-01-22T04:03:25.234Z,94.21
2023-01-22T04:05:51.959Z,90.93
2023-01-22T04:08:18.695Z,88.34
2023-01-22T04:10:45.612Z,88.12
2023-01-22T04:13:12.408Z,87.12
2023-01-22T04:15:39.140Z,90.58
2023-01-22T04:18:05.908Z,89.93
2023-01-22T04:20:32.625Z,91.50
2023-01-22T04:22:59.343Z,87.56
2023-01-22T04:25:25.996Z,86.72
2023-01-22T04:27:52.691Z,87.87
2023-01-22T04:30:19.711Z,86.85
2023-01-22T04:32:46.545Z,86.02
2023-01-22T04:35:13.184Z,88.57
2023-01-22T04:37:39.845Z,90.55
2023-01-22T04:40:06.814Z,88.76
2023-01-22T04:42:33.578Z,88.69
2023-01-22T04:45:00.228Z,90.74
2023-01-22T04:47:27.725Z,90.26
2023-01-22T04:49:54.372Z,93.67
2023-01-22T04:52:21.021Z,91.33
2023-01-22T04:54:47.682Z,90.63
2023-01-22T04:57:14.443Z,88.51
2023-01-22T04:59:41.147Z,87.61
2023-01-22T05:02:07.896Z,93.00
2023-01-22T05:04:34.621Z,90.80
2023-01-22T05:07:01.287Z,91.23
2023-01-22T05:09:27.941Z,86.79
2023-01-22T05:11:54.692Z,86.31
2023-01-22T05:14:21.392Z,83.83
2023-01-22T05:16:49.273Z,87.68
2023-01-22T05:19:16.013Z,87.48
2023-01-22T05:21:42.697Z,89.77
2023-01-22T05:24:09.627Z,91.94
2023-01-22T05:26:36.320Z,86.23
2023-01-22T05:29:03.127Z,87.30
2023-01-22T05:31:29.992Z,87.23
2023-01-22T05:33:56.693Z,87.98
2023-01-22T05:36:23.372Z,87.21
2023-01-22T05:38:50.031Z,86.83
2023-01-22T05:41:16.685Z,85.59
2023-01-22T05:43:43.353Z,82.10
2023-01-22T05:46:10.074Z,83.33
2023-01-22T05:48:36.755Z,86.22
2023-01-22T05:51:04.723Z,85.70
2023-01-22T05:53:31.403Z,85.66
2023-01-22T05:56:02.850Z,91.08
2023-01-22T05:58:30.040Z,91.33
2023-01-22T06:00:57.131Z,92.19
2023-01-22T06:03:23.975Z,88.30
2023-01-22T06:05:57.407Z,92.24
2023-01-22T06:08:24.082Z,88.62
2023-01-22T06:10:50.748Z,92.04
2023-01-22T06:13:17.438Z,89.91
2023-01-22T06:15:44.234Z,89.24
2023-01-22T06:18:10.895Z,86.36
2023-01-22T06:20:37.577Z,86.37
2023-01-22T06:23:04.220Z,84.60
2023-01-22T06:25:31.020Z,90.18
2023-01-22T06:27:57.765Z,89.94
2023-01-22T06:30:24.486Z,88.52
2023-01-22T06:32:54.238Z,88.22
2023-01-22T06:35:20.974Z,86.15
2023-01-22T06:37:47.724Z,88.29
2023-01-22T06:40:14.558Z,87.18
2023-01-22T06:42:41.455Z,84.84
2023-01-22T06:45:08.442Z,83.94
2023-01-22T06:47:35.152Z,86.82
2023-01-22T06:50:01.845Z,88.39
2023-01-22T06:52:28.513Z,86.85
2023-01-22T06:54:55.168Z,90.10
2023-01-22T06:57:21.849Z,86.76
2023-01-22T06:59:48.521Z,89.17
2023-01-22T07:02:18.554Z,91.06
2023-01-22T07:04:45.376Z,90.84
2023-01-22T07:07:12.207Z,90.11
2023-01-22T07:09:38.901Z,87.76
2023-01-22T07:12:05.633Z,90.15
2023-01-22T07:14:36.748Z,88.50
2023-01-22T07:17:03.829Z,87.84
2023-01-22T07:19:30.499Z,88.71
2023-01-22T07:21:57.176Z,89.86
2023-01-22T07:24:23.874Z,90.91
2023-01-22T07:26:50.552Z,91.30
2023-01-22T07:29:17.261Z,89.71
2023-01-22T07:31:43.960Z,90.73
2023-01-22T07:34:10.955Z,91.79
2023-01-22T07:36:37.654Z,89.87
2023-01-22T07:39:05.694Z,88.27
2023-01-22T07:41:32.764Z,89.83
2023-01-22T07:44:00.610Z,86.10
2023-01-22T07:46:27.862Z,91.00
2023-01-22T07:48:54.609Z,89.40
2023-01-22T07:51:21.468Z,89.91
2023-01-22T07:53:48.216Z,87.71
2023-01-22T07:56:14.888Z,87.67
2023-01-22T07:58:41.648Z,88.59
2023-01-22T08:01:08.479Z,87.31
2023-01-22T08:03:35.160Z,88.34
2023-01-22T08:06:01.904Z,84.00
2023-01-22T08:08:28.550Z,86.82
2023-01-22T08:10:58.192Z,85.35
2023-01-22T08:13:24.844Z,79.84
2023-01-22T08:15:51.554Z,79.13
2023-01-22T08:18:20.396Z,76.13
2023-01-22T08:20:48.075Z,78.06
2023-01-22T08:23:14.785Z,79.23
2023-01-22T08:25:41.467Z,81.27
2023-01-22T08:28:08.200Z,79.08
2023-01-22T08:30:45.348Z,79.45
2023-01-22T08:33:12.730Z,76.22
2023-01-22T08:35:39.809Z,74.31
2023-01-22T08:38:06.514Z,80.37
2023-01-22T08:40:33.220Z,76.10
2023-01-22T08:42:59.895Z,72.64
2023-01-22T08:45:26.671Z,74.81
2023-01-22T08:47:58.235Z,77.10
2023-01-22T08:50:25.096Z,73.60
2023-01-22T08:52:51.836Z,75.48
2023-01-22T08:55:18.517Z,75.29
2023-01-22T08:57:45.185Z,78.54
2023-01-22T09:00:12.055Z,79.61
2023-01-22T09:02:38.725Z,80.77
2023-01-22T09:05:05.594Z,80.98
2023-01-22T09:07:32.281Z,80.00
2023-01-22T09:09:58.967Z,79.52
2023-01-22T09:12:25.647Z,79.46
2023-01-22T09:14:52.341Z,77.06
2023-01-22T09:17:19.031Z,72.86
2023-01-22T09:19:45.650Z,72.06
2023-01-22T09:22:12.333Z,69.17
2023-01-22T09:24:39.005Z,62.73
2023-01-22T09:27:05.661Z,60.43
2023-01-22T09:29:32.318Z,59.39
2023-01-22T09:31:59.121Z,58.76
2023-01-22T09:34:25.884Z,59.73
2023-01-22T09:36:52.599Z,57.58
2023-01-22T09:39:19.250Z,57.24
2023-01-22T09:41:49.927Z,56.54
2023-01-22T09:44:18.423Z,54.90
2023-01-22T09:46:49.291Z,55.74
2023-01-22T09:49:17.223Z,55.63
2023-01-22T09:51:45.328Z,55.49
2023-01-22T09:54:15.585Z,56.01
2023-01-22T09:56:43.401Z,53.67
2023-01-22T09:59:20.132Z,53.74
2023-01-22T10:01:47.526Z,57.06
2023-01-22T10:04:32.934Z,56.53
2023-01-22T10:07:00.207Z,56.93
2023-01-22T10:09:27.338Z,55.82
2023-01-22T10:11:54.503Z,57.89
2023-01-22T10:14:22.131Z,59.94
2023-01-22T10:16:49.342Z,60.86
2023-01-22T10:19:36.297Z,61.44
2023-01-22T10:22:05.413Z,63.60
2023-01-22T10:24:32.121Z,65.71
2023-01-22T10:26:59.830Z,67.30
2023-01-22T10:29:37.363Z,65.01
2023-01-22T10:32:17.306Z,65.27
2023-01-22T10:34:43.967Z,66.46
2023-01-22T10:37:15.556Z,66.06
2023-01-22T10:39:43.324Z,65.34
2023-01-22T10:42:17.134Z,65.08
2023-01-22T10:44:43.790Z,63.87
2023-01-22T10:47:18.567Z,66.03
2023-01-22T10:49:45.243Z,67.54
2023-01-22T10:52:21.398Z,66.10
2023-01-22T10:54:51.294Z,64.88
2023-01-22T10:57:21.910Z,61.74
2023-01-22T10:59:49.319Z,57.96
2023-01-22T11:02:18.442Z,56.36
2023-01-22T11:04:45.145Z,56.22
2023-01-22T11:07:16.133Z,56.23
2023-01-22T11:09:42.868Z,58.84
2023-01-22T11:12:23.537Z,56.94
2023-01-22T11:14:52.920Z,57.02
2023-01-22T11:17:24.506Z,55.37
2023-01-22T11:19:54.341Z,55.08
2023-01-22T11:22:26.944Z,56.83
2023-01-22T11:24:53.766Z,53.00
2023-01-22T11:27:27.085Z,51.94
2023-01-22T11:30:05.292Z,53.19
2023-01-22T11:32:41.371Z,53.96
2023-01-22T11:35:13.860Z,53.94
2023-01-22T11:37:55.837Z,54.92
2023-01-22T11:40:22.640Z,54.29
2023-01-22T11:42:55.117Z,53.66
2023-01-22T11:45:26.821Z,58.31
2023-01-22T11:47:53.459Z,55.46
2023-01-22T11:50:26.498Z,54.85
2023-01-22T11:52:59.159Z,53.12
2023-01-22T11:55:47.143Z,51.35
2023-01-22T11:58:16.607Z,53.31
2023-01-22T12:00:46.278Z,53.46
2023-01-22T12:03:38.008Z,55.12
2023-01-22T12:06:18.705Z,56.98
2023-01-22T12:08:58.120Z,53.70
2023-01-22T12:11:46.879Z,51.18
2023-01-22T12:14:37.456Z,51.42
2023-01-22T12:17:09.963Z,53.46
2023-01-22T12:19:40.870Z,51.58
2023-01-22T12:22:09.897Z,52.37
2023-01-22T12:24:39.634Z,52.17
2023-01-22T12:27:18.189Z,54.27
2023-01-22T12:30:03.443Z,52.40
2023-01-22T12:32:30.154Z,54.67
2023-01-22T12:35:15.686Z,55.21
2023-01-22T12:37:45.090Z,58.55
2023-01-22T12:40:32.129Z,57.71
2023-01-22T12:43:05.427Z,59.39
2023-01-22T12:45:32.060Z,55.28
2023-01-22T12:48:13.382Z,56.17
2023-01-22T12:50:48.544Z,57.92
2023-01-22T12:53:28.500Z,56.09
2023-01-22T12:56:02.730Z,56.14
2023-01-22T12:58:30.783Z,54.82
2023-01-22T13:01:01.551Z,58.06
2023-01-22T13:03:31.630Z,56.63
2023-01-22T13:05:59.017Z,56.37
2023-01-22T13:08:27.576Z,57.62
2023-01-22T13:10:54.308Z,59.23
2023-01-22T13:13:26.077Z,59.95
2023-01-22T13:16:16.156Z,60.15
2023-01-22T13:18:50.362Z,60.49
2023-01-22T13:21:17.841Z,59.69
2023-01-22T13:23:45.522Z,60.85
2023-01-22T13:26:20.124Z,57.90
2023-01-22T13:28:53.658Z,54.22
2023-01-22T13:31:20.452Z,53.96
2023-01-22T13:33:54.512Z,54.02
2023-01-22T13:36:21.262Z,54.90
2023-01-22T13:38:58.131Z,53.51
2023-01-22T13:41:33.318Z,53.70
2023-01-22T13:44:00.011Z,52.86
2023-01-22T13:46:28.812Z,52.22
2023-01-22T13:49:02.849Z,54.78
2023-01-22T13:51:29.519Z,59.52
2023-01-22T13:53:56.148Z,59.11
2023-01-22T13:56:23.406Z,62.70
2023-01-22T13:58:50.292Z,66.30
2023-01-22T14:01:27.089Z,63.25
2023-01-22T14:04:02.959Z,67.31
2023-01-22T14:06:29.761Z,69.94
2023-01-22T14:08:56.988Z,69.77
2023-01-22T14:11:23.782Z,68.95
2023-01-22T14:13:51.455Z,69.71
2023-01-22T14:16:18.354Z,68.34
2023-01-22T14:18:47.972Z,66.97
2023-01-22T14:21:15.115Z,66.08
2023-01-22T14:23:42.904Z,67.87
2023-01-22T14:26:09.657Z,66.08
2023-01-22T14:28:36.300Z,64.72
2023-01-22T14:31:03.042Z,67.09
2023-01-22T14:33:30.657Z,71.37
2023-01-22T14:35:57.512Z,70.52
2023-01-22T14:38:24.392Z,65.20
2023-01-22T14:40:51.184Z,65.24
2023-01-22T14:43:17.903Z,64.96
2023-01-22T14:45:44.993Z,67.85
2023-01-22T14:48:18.387Z,64.24
2023-01-22T14:50:45.221Z,62.32
2023-01-22T14:53:11.913Z,64.58
2023-01-22T14:55:38.630Z,65.23
2023-01-22T14:58:06.326Z,66.31
2023-01-22T15:00:33.274Z,67.22
2023-01-22T15:03:00.066Z,67.44
2023-01-22T15:05:27.105Z,69.14
2023-01-22T15:07:53.883Z,68.91
2023-01-22T15:10:20.755Z,68.83
2023-01-22T15:12:48.670Z,71.20
2023-01-22T15:15:23.172Z,68.00
2023-01-22T15:17:52.499Z,69.92
2023-01-22T15:20:19.885Z,67.98
2023-01-22T15:22:46.819Z,68.13
2023-01-22T15:25:13.514Z,66.81
2023-01-22T15:27:40.245Z,67.20
2023-01-22T15:30:07.199Z,66.21
2023-01-22T15:32:33.890Z,69.28
2023-01-22T15:35:00.524Z,67.83
2023-01-22T15:37:27.180Z,66.00
2023-01-22T15:39:53.982Z,65.66
2023-01-22T15:42:20.679Z,60.88
2023-01-22T15:44:47.363Z,59.60
2023-01-22T15:47:14.612Z,59.86
2023-01-22T15:49:41.359Z,62.02
2023-01-22T15:52:08.007Z,61.67
2023-01-22T15:54:34.702Z,61.79
2023-01-22T15:57:01.404Z,61.26
2023-01-22T15:59:28.066Z,60.88
2023-01-22T16:01:54.725Z,59.30
2023-01-22T16:04:21.389Z,59.22
2023-01-22T16:06:48.133Z,58.36
2023-01-22T16:09:14.870Z,57.83
2023-01-22T16:11:41.572Z,56.16
2023-01-22T16:14:08.282Z,57.99
2023-01-22T16:16:38.006Z,55.46
2023-01-22T16:19:06.403Z,56.53
2023-01-22T16:21:33.281Z,52.85
2023-01-22T16:24:00.757Z,53.69
2023-01-22T16:26:28.457Z,56.58
2023-01-22T16:28:55.644Z,58.55
2023-01-22T16:31:23.507Z,59.13
2023-01-22T16:33:53.292Z,59.88
2023-01-22T16:36:20.442Z,59.08
2023-01-22T16:38:47.328Z,59.87
2023-01-22T16:41:30.192Z,61.75
2023-01-22T16:43:58.690Z,62.75
2023-01-22T16:46:26.594Z,65.91
2023-01-22T16:48:57.064Z,70.36
2023-01-22T16:51:25.058Z,69.26
2023-01-22T16:53:51.923Z,70.99
2023-01-22T16:57:33.806Z,70.13
2023-01-22T17:00:00.784Z,73.66
2023-01-22T17:02:27.701Z,79.92
2023-01-22T17:04:55.239Z,91.01
2023-01-22T17:07:33.294Z,93.31
2023-01-22T17:10:00.899Z,97.63
2023-01-22T17:12:27.834Z,98.42
2023-01-22T17:14:54.707Z,99.78
2023-01-22T17:17:21.337Z,99.74
2023-01-22T17:19:48.197Z,100.00
2023-01-22T17:22:15.102Z,100.00
2023-01-22T17:24:42.154Z,100.00
2023-01-22T17:27:09.069Z,99.91
2023-01-22T17:29:36.435Z,100.00
2023-01-22T17:32:03.973Z,100.00
2023-01-22T17:34:31.112Z,100.00
2023-01-22T17:36:57.955Z,100.00
2023-01-22T17:39:24.971Z,100.00
2023-01-22T17:41:51.856Z,100.00
2023-01-22T17:44:18.549Z,100.00
2023-01-22T17:46:45.434Z,100.00
2023-01-22T17:49:12.094Z,100.00
2023-01-22T17:51:38.948Z,100.00
2023-01-22T17:54:06.373Z,100.00
2023-01-22T17:56:34.430Z,100.00
2023-01-22T17:59:01.933Z,100.00
2023-01-22T18:01:30.507Z,100.00
2023-01-22T18:04:01.837Z,100.00
2023-01-22T18:06:28.507Z,100.00
2023-01-22T18:08:55.395Z,100.00
2023-01-22T18:11:24.257Z,100.00
2023-01-22T18:13:51.021Z,100.00
2023-01-22T18:16:18.575Z,100.00
2023-01-22T18:18:45.315Z,100.00
2023-01-22T18:21:16.561Z,100.00
2023-01-22T18:23:46.410Z,100.00
2023-01-22T18:26:13.490Z,100.00
2023-01-22T18:28:40.155Z,100.00
2023-01-22T18:31:08.051Z,100.00
2023-01-22T18:33:37.362Z,100.00
2023-01-22T18:36:09.060Z,100.00
2023-01-22T18:38:37.092Z,100.00
2023-01-22T18:41:08.189Z,100.00
2023-01-22T18:43:34.852Z,100.00
2023-01-22T18:46:05.511Z,100.00
2023-01-22T18:48:32.273Z,100.00
2023-01-22T18:50:59.036Z,100.00
2023-01-22T18:53:25.786Z,100.00
2023-01-22T18:55:52.595Z,100.00
2023-01-22T18:58:31.158Z,100.00
2023-01-22T19:01:08.698Z,100.00
2023-01-22T19:03:35.720Z,100.00
2023-01-22T19:06:13.394Z,100.00
2023-01-22T19:08:43.863Z,100.00
2023-01-22T19:11:12.318Z,100.00
2023-01-22T19:13:39.839Z,100.00
2023-01-22T19:16:07.466Z,100.00
2023-01-22T19:18:34.188Z,100.00
2023-01-22T19:21:09.119Z,100.00
2023-01-22T19:23:36.983Z,100.00
2023-01-22T19:26:07.830Z,100.00
2023-01-22T19:28:34.666Z,100.00
2023-01-22T19:31:01.473Z,100.00
2023-01-22T19:33:28.216Z,100.00
2023-01-22T19:35:55.337Z,100.00
2023-01-22T19:38:22.462Z,100.00
2023-01-22T19:40:49.387Z,100.00
2023-01-22T19:43:16.069Z,100.00
2023-01-22T19:45:42.742Z,100.00
2023-01-22T19:48:09.430Z,100.00
2023-01-22T19:50:36.247Z,100.00
2023-01-22T19:53:02.920Z,100.00
2023-01-22T19:55:29.911Z,100.00
2023-01-22T19:57:56.673Z,100.00
2023-01-22T20:00:23.492Z,100.00
2023-01-22T20:02:50.138Z,100.00
2023-01-22T20:05:17.805Z,100.00
2023-01-22T20:07:45.533Z,100.00
2023-01-22T20:10:15.606Z,100.00
2023-01-22T20:12:43.477Z,100.00
2023-01-22T20:15:10.453Z,100.00
2023-01-22T20:17:37.354Z,100.00
2023-01-22T20:20:05.196Z,100.00
2023-01-22T20:22:32.161Z,100.00
2023-01-22T20:24:58.811Z,100.00
2023-01-22T20:27:25.591Z,100.00
2023-01-22T20:29:54.284Z,100.00
2023-01-22T20:32:20.957Z,100.00
2023-01-22T20:34:49.085Z,100.00
2023-01-22T20:37:15.788Z,100.00
2023-01-22T20:39:42.448Z,100.00
2023-01-22T20:42:09.146Z,100.00
2023-01-22T20:44:36.196Z,100.00
2023-01-22T20:47:02.967Z,100.00
2023-01-22T20:49:29.740Z,100.00
2023-01-22T20:51:56.421Z,100.00
2023-01-22T20:54:23.071Z,100.00
2023-01-22T20:56:50.467Z,100.00
2023-01-22T20:59:18.431Z,100.00
2023-01-22T21:01:45.232Z,100.00
2023-01-22T21:04:12.279Z,100.00
2023-01-22T21:06:39.741Z,100.00
2023-01-22T21:09:07.108Z,100.00
2023-01-22T21:11:34.150Z,100.00
2023-01-22T21:14:01.204Z,100.00
2023-01-22T21:16:32.111Z,100.00
2023-01-22T21:19:01.853Z,100.00
2023-01-22T21:21:28.805Z,100.00
2023-01-22T21:23:55.586Z,100.00
2023-01-22T21:26:23.941Z,100.00
2023-01-22T21:28:51.332Z,100.00
2023-01-22T21:31:19.416Z,100.00
2023-01-22T21:33:46.229Z,100.00
2023-01-22T21:36:13.253Z,100.00
2023-01-22T21:38:40.031Z,100.00
2023-01-22T21:41:09.875Z,100.00
2023-01-22T21:43:54.889Z,100.00
2023-01-22T21:46:27.827Z,100.00
2023-01-22T21:48:57.363Z,100.00
2023-01-22T21:51:25.026Z,100.00
2023-01-22T21:53:55.351Z,100.00
2023-01-22T21:56:22.295Z,100.00
2023-01-22T21:58:49.036Z,100.00
2023-01-22T22:01:16.763Z,100.00
2023-01-22T22:03:43.499Z,100.00
2023-01-22T22:06:10.730Z,100.00
2023-01-22T22:08:37.522Z,100.00
2023-01-22T22:11:04.372Z,100.00
2023-01-22T22:13:31.696Z,100.00
2023-01-22T22:16:02.489Z,100.00
2023-01-22T22:18:29.194Z,100.00
2023-01-22T22:20:59.226Z,100.00
2023-01-22T22:23:25.869Z,100.00
2023-01-22T22:25:52.540Z,100.00
2023-01-22T22:28:19.267Z,100.00
2023-01-22T22:30:46.946Z,100.00
2023-01-22T22:33:13.651Z,100.00
2023-01-22T22:35:40.314Z,100.00
2023-01-22T22:38:07.037Z,100.00
2023-01-22T22:40:33.732Z,100.00
2023-01-22T22:43:00.656Z,100.00
2023-01-22T22:45:27.300Z,100.00
2023-01-22T22:47:53.967Z,100.00
2023-01-22T22:50:21.923Z,100.00
2023-01-22T22:52:48.778Z,100.00
2023-01-22T22:55:15.480Z,100.00
2023-01-22T22:57:42.208Z,100.00
2023-01-22T23:00:12.111Z,100.00
2023-01-22T23:02:39.003Z,100.00
2023-01-22T23:05:05.847Z,100.00
2023-01-22T23:07:32.563Z,100.00
2023-01-22T23:10:05.231Z,100.00
2023-01-22T23:12:31.897Z,100.00
2023-01-22T23:14:58.592Z,100.00
2023-01-22T23:17:25.268Z,100.00
2023-01-22T23:19:51.922Z,100.00
2023-01-22T23:22:18.564Z,100.00
2023-01-22T23:24:46.688Z,100.00
2023-01-22T23:27:13.475Z,100.00
2023-01-22T23:29:40.204Z,100.00
2023-01-22T23:32:06.879Z,100.00
2023-01-22T23:34:33.531Z,100.00
2023-01-22T23:37:00.200Z,100.00
2023-01-22T23:39:26.864Z,100.00
2023-01-22T23:41:53.543Z,100.00
2023-01-22T23:44:20.266Z,100.00
2023-01-22T23:46:46.993Z,100.00
2023-01-22T23:49:13.697Z,100.00
2023-01-22T23:51:42.316Z,100.00
2023-01-22T23:54:09.143Z,100.00
2023-01-22T23:56:36.091Z,100.00
2023-01-22T23:59:02.764Z,100.00
